sensor_id;sensor_type;location;lat;lon;timestamp;P1;durP1;ratioP1;P2;durP2;ratioP2
21987;SDS011;11158;53.404;-1.510;2023-05-17T00:02:16;15.10;;;2.70;;
21987;SDS011;11158;53.404;-1.510;2023-05-17T00:05:00;7.70;;;2.58;;
21987;SDS011;11158;53.404;-1.510;2023-05-17T00:07:45;6.80;;;2.65;;
21987;SDS011;11158;53.404;-1.510;2023-05-17T00:10:31;10.23;;;3.70;;
21987;SDS011;11158;53.404;-1.510;2023-05-17T00:13:15;7.45;;;2.60;;
21987;SDS011;11158;53.404;-1.510;2023-05-17T00:15:59;7.60;;;2.60;;
21987;SDS011;11158;53.404;-1.510;2023-05-17T00:18:43;8.82;;;3.10;;
21987;SDS011;11158;53.404;-1.510;2023-05-17T00:21:28;6.65;;;2.72;;
21987;SDS011;11158;53.404;-1.510;2023-05-17T00:24:12;7.55;;;2.70;;
21987;SDS011;11158;53.404;-1.510;2023-05-17T00:26:56;7.97;;;2.85;;
21987;SDS011;11158;53.404;-1.510;2023-05-17T00:29:41;8.07;;;2.80;;
21987;SDS011;11158;53.404;-1.510;2023-05-17T00:32:25;11.02;;;3.28;;
21987;SDS011;11158;53.404;-1.510;2023-05-17T00:35:09;7.60;;;3.45;;
21987;SDS011;11158;53.404;-1.510;2023-05-17T00:37:53;9.20;;;3.00;;
21987;SDS011;11158;53.404;-1.510;2023-05-17T00:40:37;8.48;;;2.95;;
21987;SDS011;11158;53.404;-1.510;2023-05-17T00:43:21;7.43;;;2.95;;
21987;SDS011;11158;53.404;-1.510;2023-05-17T00:46:05;9.45;;;3.80;;
21987;SDS011;11158;53.404;-1.510;2023-05-17T00:48:49;11.95;;;3.20;;
21987;SDS011;11158;53.404;-1.510;2023-05-17T00:51:34;8.23;;;3.25;;
21987;SDS011;11158;53.404;-1.510;2023-05-17T00:54:19;9.25;;;3.65;;
21987;SDS011;11158;53.404;-1.510;2023-05-17T00:57:04;6.75;;;3.00;;
21987;SDS011;11158;53.404;-1.510;2023-05-17T00:59:48;6.93;;;3.10;;
21987;SDS011;11158;53.404;-1.510;2023-05-17T01:02:34;7.47;;;3.28;;
21987;SDS011;11158;53.404;-1.510;2023-05-17T01:05:19;10.13;;;2.92;;
21987;SDS011;11158;53.404;-1.510;2023-05-17T01:08:03;8.82;;;3.58;;
21987;SDS011;11158;53.404;-1.510;2023-05-17T01:11:04;9.57;;;3.63;;
21987;SDS011;11158;53.404;-1.510;2023-05-17T01:26:46;8.63;;;3.28;;
21987;SDS011;11158;53.404;-1.510;2023-05-17T01:29:33;11.05;;;4.20;;
21987;SDS011;11158;53.404;-1.510;2023-05-17T01:32:20;9.65;;;3.78;;
21987;SDS011;11158;53.404;-1.510;2023-05-17T01:35:05;10.93;;;3.53;;
21987;SDS011;11158;53.404;-1.510;2023-05-17T01:37:50;6.05;;;3.50;;
21987;SDS011;11158;53.404;-1.510;2023-05-17T01:40:38;8.38;;;3.42;;
21987;SDS011;11158;53.404;-1.510;2023-05-17T01:46:40;8.23;;;3.97;;
21987;SDS011;11158;53.404;-1.510;2023-05-17T01:49:29;10.35;;;4.32;;
21987;SDS011;11158;53.404;-1.510;2023-05-17T01:52:23;12.40;;;4.28;;
21987;SDS011;11158;53.404;-1.510;2023-05-17T01:55:35;12.93;;;4.43;;
21987;SDS011;11158;53.404;-1.510;2023-05-17T01:58:25;9.40;;;4.38;;
21987;SDS011;11158;53.404;-1.510;2023-05-17T02:01:13;10.02;;;4.65;;
21987;SDS011;11158;53.404;-1.510;2023-05-17T02:03:59;13.05;;;5.28;;
21987;SDS011;11158;53.404;-1.510;2023-05-17T02:06:43;12.32;;;4.60;;
21987;SDS011;11158;53.404;-1.510;2023-05-17T02:09:28;10.23;;;4.40;;
21987;SDS011;11158;53.404;-1.510;2023-05-17T02:12:12;9.48;;;4.82;;
21987;SDS011;11158;53.404;-1.510;2023-05-17T02:14:56;15.55;;;5.15;;
21987;SDS011;11158;53.404;-1.510;2023-05-17T02:17:40;12.13;;;5.03;;
21987;SDS011;11158;53.404;-1.510;2023-05-17T02:20:26;9.13;;;4.40;;
21987;SDS011;11158;53.404;-1.510;2023-05-17T02:23:10;14.73;;;5.55;;
21987;SDS011;11158;53.404;-1.510;2023-05-17T02:25:54;9.68;;;4.45;;
21987;SDS011;11158;53.404;-1.510;2023-05-17T02:28:38;10.35;;;4.90;;
21987;SDS011;11158;53.404;-1.510;2023-05-17T02:31:23;7.25;;;4.22;;
21987;SDS011;11158;53.404;-1.510;2023-05-17T02:34:10;12.23;;;4.65;;
21987;SDS011;11158;53.404;-1.510;2023-05-17T02:36:54;11.90;;;4.78;;
21987;SDS011;11158;53.404;-1.510;2023-05-17T02:39:38;9.70;;;4.78;;
21987;SDS011;11158;53.404;-1.510;2023-05-17T02:42:22;9.98;;;4.53;;
21987;SDS011;11158;53.404;-1.510;2023-05-17T02:45:06;10.05;;;4.70;;
21987;SDS011;11158;53.404;-1.510;2023-05-17T02:47:51;12.52;;;4.88;;
21987;SDS011;11158;53.404;-1.510;2023-05-17T02:50:35;10.25;;;5.07;;
21987;SDS011;11158;53.404;-1.510;2023-05-17T02:53:19;12.80;;;4.90;;
21987;SDS011;11158;53.404;-1.510;2023-05-17T02:56:03;9.18;;;5.10;;
21987;SDS011;11158;53.404;-1.510;2023-05-17T02:58:47;11.35;;;4.85;;
21987;SDS011;11158;53.404;-1.510;2023-05-17T03:01:31;11.45;;;4.72;;
21987;SDS011;11158;53.404;-1.510;2023-05-17T03:04:15;10.85;;;5.28;;
21987;SDS011;11158;53.404;-1.510;2023-05-17T03:06:59;17.13;;;4.93;;
21987;SDS011;11158;53.404;-1.510;2023-05-17T03:09:43;11.32;;;4.85;;
21987;SDS011;11158;53.404;-1.510;2023-05-17T03:12:27;7.32;;;4.90;;
21987;SDS011;11158;53.404;-1.510;2023-05-17T03:15:11;12.95;;;5.00;;
21987;SDS011;11158;53.404;-1.510;2023-05-17T03:17:56;9.30;;;4.90;;
21987;SDS011;11158;53.404;-1.510;2023-05-17T03:20:41;10.70;;;4.85;;
21987;SDS011;11158;53.404;-1.510;2023-05-17T03:23:25;11.00;;;5.50;;
21987;SDS011;11158;53.404;-1.510;2023-05-17T03:26:09;11.90;;;5.55;;
21987;SDS011;11158;53.404;-1.510;2023-05-17T03:28:53;11.10;;;4.95;;
21987;SDS011;11158;53.404;-1.510;2023-05-17T03:31:37;9.27;;;5.30;;
21987;SDS011;11158;53.404;-1.510;2023-05-17T03:34:21;10.77;;;5.05;;
21987;SDS011;11158;53.404;-1.510;2023-05-17T03:37:05;10.00;;;4.95;;
21987;SDS011;11158;53.404;-1.510;2023-05-17T03:39:49;13.07;;;5.05;;
21987;SDS011;11158;53.404;-1.510;2023-05-17T03:42:33;7.28;;;5.07;;
21987;SDS011;11158;53.404;-1.510;2023-05-17T03:45:17;11.35;;;5.13;;
21987;SDS011;11158;53.404;-1.510;2023-05-17T03:48:01;12.65;;;5.05;;
21987;SDS011;11158;53.404;-1.510;2023-05-17T03:50:45;15.20;;;5.68;;
21987;SDS011;11158;53.404;-1.510;2023-05-17T03:53:29;12.23;;;5.30;;
21987;SDS011;11158;53.404;-1.510;2023-05-17T03:56:13;10.57;;;4.82;;
21987;SDS011;11158;53.404;-1.510;2023-05-17T03:58:58;11.90;;;5.25;;
21987;SDS011;11158;53.404;-1.510;2023-05-17T04:01:42;10.50;;;4.65;;
21987;SDS011;11158;53.404;-1.510;2023-05-17T04:04:28;9.98;;;4.65;;
21987;SDS011;11158;53.404;-1.510;2023-05-17T04:07:12;8.20;;;5.13;;
21987;SDS011;11158;53.404;-1.510;2023-05-17T04:09:56;10.05;;;5.30;;
21987;SDS011;11158;53.404;-1.510;2023-05-17T04:12:45;12.80;;;5.80;;
21987;SDS011;11158;53.404;-1.510;2023-05-17T04:15:29;9.80;;;5.07;;
21987;SDS011;11158;53.404;-1.510;2023-05-17T04:18:14;12.02;;;4.93;;
21987;SDS011;11158;53.404;-1.510;2023-05-17T04:20:58;12.82;;;5.78;;
21987;SDS011;11158;53.404;-1.510;2023-05-17T04:23:42;11.70;;;5.47;;
21987;SDS011;11158;53.404;-1.510;2023-05-17T04:26:26;10.70;;;5.50;;
21987;SDS011;11158;53.404;-1.510;2023-05-17T04:29:10;9.25;;;5.50;;
21987;SDS011;11158;53.404;-1.510;2023-05-17T04:31:54;11.13;;;4.80;;
21987;SDS011;11158;53.404;-1.510;2023-05-17T04:34:38;10.93;;;5.32;;
21987;SDS011;11158;53.404;-1.510;2023-05-17T04:37:23;12.15;;;5.93;;
21987;SDS011;11158;53.404;-1.510;2023-05-17T04:40:08;10.65;;;5.85;;
21987;SDS011;11158;53.404;-1.510;2023-05-17T04:42:52;10.43;;;5.93;;
21987;SDS011;11158;53.404;-1.510;2023-05-17T04:45:36;9.55;;;5.80;;
21987;SDS011;11158;53.404;-1.510;2023-05-17T04:48:21;13.30;;;5.90;;
21987;SDS011;11158;53.404;-1.510;2023-05-17T04:51:05;12.48;;;6.38;;
21987;SDS011;11158;53.404;-1.510;2023-05-17T04:53:50;16.42;;;7.32;;
21987;SDS011;11158;53.404;-1.510;2023-05-17T04:56:34;13.65;;;6.80;;
21987;SDS011;11158;53.404;-1.510;2023-05-17T04:59:22;10.27;;;6.38;;
21987;SDS011;11158;53.404;-1.510;2023-05-17T05:02:06;11.48;;;6.57;;
21987;SDS011;11158;53.404;-1.510;2023-05-17T05:04:50;13.23;;;6.82;;
21987;SDS011;11158;53.404;-1.510;2023-05-17T05:07:34;11.00;;;6.82;;
21987;SDS011;11158;53.404;-1.510;2023-05-17T05:10:19;16.92;;;6.97;;
21987;SDS011;11158;53.404;-1.510;2023-05-17T05:13:03;12.73;;;6.70;;
21987;SDS011;11158;53.404;-1.510;2023-05-17T05:15:47;10.80;;;6.03;;
21987;SDS011;11158;53.404;-1.510;2023-05-17T05:18:31;12.00;;;7.13;;
21987;SDS011;11158;53.404;-1.510;2023-05-17T05:21:16;9.95;;;6.20;;
21987;SDS011;11158;53.404;-1.510;2023-05-17T05:24:00;10.68;;;5.68;;
21987;SDS011;11158;53.404;-1.510;2023-05-17T05:26:44;12.73;;;5.75;;
21987;SDS011;11158;53.404;-1.510;2023-05-17T05:29:29;12.88;;;6.05;;
21987;SDS011;11158;53.404;-1.510;2023-05-17T05:32:14;9.25;;;5.88;;
21987;SDS011;11158;53.404;-1.510;2023-05-17T05:35:00;12.52;;;5.85;;
21987;SDS011;11158;53.404;-1.510;2023-05-17T05:37:44;8.75;;;5.07;;
21987;SDS011;11158;53.404;-1.510;2023-05-17T05:40:28;10.63;;;5.15;;
21987;SDS011;11158;53.404;-1.510;2023-05-17T05:43:13;10.30;;;5.13;;
21987;SDS011;11158;53.404;-1.510;2023-05-17T05:45:58;10.10;;;4.72;;
21987;SDS011;11158;53.404;-1.510;2023-05-17T05:48:42;9.20;;;4.20;;
21987;SDS011;11158;53.404;-1.510;2023-05-17T05:51:27;9.55;;;5.00;;
21987;SDS011;11158;53.404;-1.510;2023-05-17T05:54:11;9.55;;;4.28;;
21987;SDS011;11158;53.404;-1.510;2023-05-17T05:56:56;10.45;;;4.38;;
21987;SDS011;11158;53.404;-1.510;2023-05-17T05:59:40;8.43;;;3.58;;
21987;SDS011;11158;53.404;-1.510;2023-05-17T06:02:24;13.35;;;4.45;;
21987;SDS011;11158;53.404;-1.510;2023-05-17T06:05:09;8.48;;;3.75;;
21987;SDS011;11158;53.404;-1.510;2023-05-17T06:07:53;7.95;;;3.55;;
21987;SDS011;11158;53.404;-1.510;2023-05-17T06:10:38;8.73;;;3.35;;
21987;SDS011;11158;53.404;-1.510;2023-05-17T06:13:22;10.32;;;3.40;;
21987;SDS011;11158;53.404;-1.510;2023-05-17T06:16:06;6.28;;;2.97;;
21987;SDS011;11158;53.404;-1.510;2023-05-17T06:18:50;6.72;;;3.33;;
21987;SDS011;11158;53.404;-1.510;2023-05-17T06:21:34;7.88;;;2.80;;
21987;SDS011;11158;53.404;-1.510;2023-05-17T06:24:18;9.57;;;3.50;;
21987;SDS011;11158;53.404;-1.510;2023-05-17T06:27:03;11.55;;;3.88;;
21987;SDS011;11158;53.404;-1.510;2023-05-17T06:29:47;9.10;;;3.78;;
21987;SDS011;11158;53.404;-1.510;2023-05-17T06:32:31;6.50;;;3.25;;
21987;SDS011;11158;53.404;-1.510;2023-05-17T06:35:16;10.43;;;3.63;;
21987;SDS011;11158;53.404;-1.510;2023-05-17T06:38:00;11.20;;;3.67;;
21987;SDS011;11158;53.404;-1.510;2023-05-17T06:40:45;10.10;;;4.00;;
21987;SDS011;11158;53.404;-1.510;2023-05-17T06:43:29;8.40;;;4.28;;
21987;SDS011;11158;53.404;-1.510;2023-05-17T06:46:13;6.63;;;3.60;;
21987;SDS011;11158;53.404;-1.510;2023-05-17T06:48:57;8.30;;;4.47;;
21987;SDS011;11158;53.404;-1.510;2023-05-17T06:51:41;11.20;;;4.70;;
21987;SDS011;11158;53.404;-1.510;2023-05-17T06:54:25;8.80;;;3.80;;
21987;SDS011;11158;53.404;-1.510;2023-05-17T06:59:29;11.10;;;4.85;;
21987;SDS011;11158;53.404;-1.510;2023-05-17T07:02:13;12.25;;;5.65;;
21987;SDS011;11158;53.404;-1.510;2023-05-17T07:04:57;8.35;;;4.55;;
21987;SDS011;11158;53.404;-1.510;2023-05-17T07:07:41;7.43;;;4.68;;
21987;SDS011;11158;53.404;-1.510;2023-05-17T07:10:25;9.90;;;4.80;;
21987;SDS011;11158;53.404;-1.510;2023-05-17T07:13:10;8.43;;;3.65;;
21987;SDS011;11158;53.404;-1.510;2023-05-17T07:15:54;10.02;;;3.45;;
21987;SDS011;11158;53.404;-1.510;2023-05-17T07:18:39;9.35;;;3.45;;
21987;SDS011;11158;53.404;-1.510;2023-05-17T07:21:23;10.02;;;3.45;;
21987;SDS011;11158;53.404;-1.510;2023-05-17T07:24:07;7.28;;;3.05;;
21987;SDS011;11158;53.404;-1.510;2023-05-17T07:26:52;7.50;;;3.15;;
21987;SDS011;11158;53.404;-1.510;2023-05-17T07:29:36;7.70;;;4.07;;
21987;SDS011;11158;53.404;-1.510;2023-05-17T07:32:20;7.60;;;3.55;;
21987;SDS011;11158;53.404;-1.510;2023-05-17T07:35:04;9.85;;;3.35;;
21987;SDS011;11158;53.404;-1.510;2023-05-17T07:37:49;7.18;;;3.15;;
21987;SDS011;11158;53.404;-1.510;2023-05-17T07:40:33;6.63;;;3.63;;
21987;SDS011;11158;53.404;-1.510;2023-05-17T07:43:17;15.30;;;3.63;;
21987;SDS011;11158;53.404;-1.510;2023-05-17T07:46:02;12.07;;;3.15;;
21987;SDS011;11158;53.404;-1.510;2023-05-17T07:48:46;7.75;;;3.15;;
21987;SDS011;11158;53.404;-1.510;2023-05-17T07:51:30;6.75;;;2.90;;
21987;SDS011;11158;53.404;-1.510;2023-05-17T07:54:21;6.15;;;3.25;;
21987;SDS011;11158;53.404;-1.510;2023-05-17T07:57:12;6.80;;;3.10;;
21987;SDS011;11158;53.404;-1.510;2023-05-17T07:59:56;9.57;;;3.95;;
21987;SDS011;11158;53.404;-1.510;2023-05-17T08:02:40;8.93;;;3.50;;
21987;SDS011;11158;53.404;-1.510;2023-05-17T08:05:24;9.23;;;3.50;;
21987;SDS011;11158;53.404;-1.510;2023-05-17T08:08:08;7.63;;;3.13;;
21987;SDS011;11158;53.404;-1.510;2023-05-17T08:10:52;9.10;;;2.90;;
21987;SDS011;11158;53.404;-1.510;2023-05-17T08:13:36;8.38;;;2.50;;
21987;SDS011;11158;53.404;-1.510;2023-05-17T08:16:20;7.95;;;2.53;;
21987;SDS011;11158;53.404;-1.510;2023-05-17T08:19:04;6.50;;;2.78;;
21987;SDS011;11158;53.404;-1.510;2023-05-17T08:21:48;7.10;;;2.75;;
21987;SDS011;11158;53.404;-1.510;2023-05-17T08:24:32;7.13;;;2.85;;
21987;SDS011;11158;53.404;-1.510;2023-05-17T08:27:16;8.95;;;2.90;;
21987;SDS011;11158;53.404;-1.510;2023-05-17T08:30:01;7.18;;;3.00;;
21987;SDS011;11158;53.404;-1.510;2023-05-17T08:32:45;7.45;;;2.55;;
21987;SDS011;11158;53.404;-1.510;2023-05-17T08:35:30;5.32;;;2.35;;
21987;SDS011;11158;53.404;-1.510;2023-05-17T08:38:14;8.23;;;2.55;;
21987;SDS011;11158;53.404;-1.510;2023-05-17T08:40:59;4.57;;;2.50;;
21987;SDS011;11158;53.404;-1.510;2023-05-17T08:43:44;10.10;;;3.03;;
21987;SDS011;11158;53.404;-1.510;2023-05-17T08:46:30;7.07;;;2.55;;
21987;SDS011;11158;53.404;-1.510;2023-05-17T08:49:15;6.95;;;2.28;;
21987;SDS011;11158;53.404;-1.510;2023-05-17T08:52:01;5.70;;;1.90;;
21987;SDS011;11158;53.404;-1.510;2023-05-17T08:54:52;7.03;;;2.17;;
21987;SDS011;11158;53.404;-1.510;2023-05-17T08:57:37;4.40;;;2.45;;
21987;SDS011;11158;53.404;-1.510;2023-05-17T09:00:23;6.95;;;2.47;;
21987;SDS011;11158;53.404;-1.510;2023-05-17T09:03:10;5.20;;;2.20;;
21987;SDS011;11158;53.404;-1.510;2023-05-17T09:05:58;4.78;;;2.05;;
21987;SDS011;11158;53.404;-1.510;2023-05-17T09:08:42;4.82;;;2.08;;
21987;SDS011;11158;53.404;-1.510;2023-05-17T09:11:28;6.95;;;2.40;;
21987;SDS011;11158;53.404;-1.510;2023-05-17T09:14:14;8.32;;;2.45;;
21987;SDS011;11158;53.404;-1.510;2023-05-17T09:17:00;8.25;;;2.40;;
21987;SDS011;11158;53.404;-1.510;2023-05-17T09:19:45;5.03;;;2.28;;
21987;SDS011;11158;53.404;-1.510;2023-05-17T09:22:30;6.65;;;2.20;;
21987;SDS011;11158;53.404;-1.510;2023-05-17T09:25:18;4.35;;;2.22;;
21987;SDS011;11158;53.404;-1.510;2023-05-17T09:28:06;6.30;;;2.22;;
21987;SDS011;11158;53.404;-1.510;2023-05-17T09:30:50;5.15;;;2.58;;
21987;SDS011;11158;53.404;-1.510;2023-05-17T09:36:34;5.35;;;2.38;;
21987;SDS011;11158;53.404;-1.510;2023-05-17T09:39:19;5.93;;;2.13;;
21987;SDS011;11158;53.404;-1.510;2023-05-17T09:42:03;4.00;;;2.08;;
21987;SDS011;11158;53.404;-1.510;2023-05-17T09:44:52;8.05;;;2.65;;
21987;SDS011;11158;53.404;-1.510;2023-05-17T09:47:40;5.72;;;2.03;;
21987;SDS011;11158;53.404;-1.510;2023-05-17T09:50:24;5.93;;;2.65;;
21987;SDS011;11158;53.404;-1.510;2023-05-17T09:56:09;4.05;;;1.95;;
21987;SDS011;11158;53.404;-1.510;2023-05-17T09:58:53;3.20;;;1.92;;
21987;SDS011;11158;53.404;-1.510;2023-05-17T10:01:41;6.00;;;1.98;;
21987;SDS011;11158;53.404;-1.510;2023-05-17T10:04:27;4.30;;;1.95;;
21987;SDS011;11158;53.404;-1.510;2023-05-17T10:07:17;5.57;;;2.45;;
21987;SDS011;11158;53.404;-1.510;2023-05-17T10:10:02;5.28;;;2.17;;
21987;SDS011;11158;53.404;-1.510;2023-05-17T10:12:47;4.20;;;2.00;;
21987;SDS011;11158;53.404;-1.510;2023-05-17T10:15:32;4.13;;;2.08;;
21987;SDS011;11158;53.404;-1.510;2023-05-17T10:18:18;4.15;;;1.80;;
21987;SDS011;11158;53.404;-1.510;2023-05-17T10:21:04;3.25;;;2.00;;
21987;SDS011;11158;53.404;-1.510;2023-05-17T10:23:50;6.55;;;2.03;;
21987;SDS011;11158;53.404;-1.510;2023-05-17T10:26:35;4.10;;;2.05;;
21987;SDS011;11158;53.404;-1.510;2023-05-17T10:29:21;4.97;;;2.28;;
21987;SDS011;11158;53.404;-1.510;2023-05-17T10:32:06;5.28;;;2.35;;
21987;SDS011;11158;53.404;-1.510;2023-05-17T10:34:51;5.22;;;2.25;;
21987;SDS011;11158;53.404;-1.510;2023-05-17T10:37:38;4.80;;;2.17;;
21987;SDS011;11158;53.404;-1.510;2023-05-17T10:40:22;5.93;;;2.42;;
21987;SDS011;11158;53.404;-1.510;2023-05-17T10:43:07;4.65;;;2.20;;
21987;SDS011;11158;53.404;-1.510;2023-05-17T10:45:53;5.63;;;2.13;;
21987;SDS011;11158;53.404;-1.510;2023-05-17T10:48:38;4.32;;;1.95;;
21987;SDS011;11158;53.404;-1.510;2023-05-17T10:51:23;3.45;;;1.85;;
21987;SDS011;11158;53.404;-1.510;2023-05-17T10:54:10;6.00;;;2.17;;
21987;SDS011;11158;53.404;-1.510;2023-05-17T10:56:55;4.65;;;2.20;;
21987;SDS011;11158;53.404;-1.510;2023-05-17T10:59:54;5.15;;;2.20;;
21987;SDS011;11158;53.404;-1.510;2023-05-17T11:02:40;4.20;;;1.92;;
21987;SDS011;11158;53.404;-1.510;2023-05-17T11:05:27;6.07;;;2.35;;
21987;SDS011;11158;53.404;-1.510;2023-05-17T11:08:12;5.20;;;2.50;;
21987;SDS011;11158;53.404;-1.510;2023-05-17T11:13:56;2.70;;;1.90;;
21987;SDS011;11158;53.404;-1.510;2023-05-17T11:16:41;5.32;;;2.08;;
21987;SDS011;11158;53.404;-1.510;2023-05-17T11:19:25;4.18;;;2.10;;
21987;SDS011;11158;53.404;-1.510;2023-05-17T11:22:09;6.25;;;2.75;;
21987;SDS011;11158;53.404;-1.510;2023-05-17T11:24:55;6.50;;;2.42;;
21987;SDS011;11158;53.404;-1.510;2023-05-17T11:27:44;5.10;;;2.35;;
21987;SDS011;11158;53.404;-1.510;2023-05-17T11:30:30;5.13;;;2.10;;
21987;SDS011;11158;53.404;-1.510;2023-05-17T11:33:15;3.00;;;2.03;;
21987;SDS011;11158;53.404;-1.510;2023-05-17T11:36:02;5.10;;;2.13;;
21987;SDS011;11158;53.404;-1.510;2023-05-17T11:38:51;6.28;;;2.20;;
21987;SDS011;11158;53.404;-1.510;2023-05-17T11:41:54;5.80;;;2.10;;
21987;SDS011;11158;53.404;-1.510;2023-05-17T11:44:39;3.22;;;1.80;;
21987;SDS011;11158;53.404;-1.510;2023-05-17T11:47:23;4.55;;;2.00;;
21987;SDS011;11158;53.404;-1.510;2023-05-17T11:50:09;6.30;;;2.20;;
21987;SDS011;11158;53.404;-1.510;2023-05-17T11:52:53;3.08;;;1.90;;
21987;SDS011;11158;53.404;-1.510;2023-05-17T11:55:42;5.45;;;2.10;;
21987;SDS011;11158;53.404;-1.510;2023-05-17T11:58:30;3.47;;;1.63;;
21987;SDS011;11158;53.404;-1.510;2023-05-17T12:01:14;6.03;;;2.10;;
21987;SDS011;11158;53.404;-1.510;2023-05-17T12:03:59;4.38;;;1.95;;
21987;SDS011;11158;53.404;-1.510;2023-05-17T12:06:43;5.38;;;2.13;;
21987;SDS011;11158;53.404;-1.510;2023-05-17T12:09:27;4.15;;;2.17;;
21987;SDS011;11158;53.404;-1.510;2023-05-17T12:12:12;3.63;;;1.80;;
21987;SDS011;11158;53.404;-1.510;2023-05-17T12:14:56;2.30;;;1.70;;
21987;SDS011;11158;53.404;-1.510;2023-05-17T12:17:41;3.47;;;2.13;;
21987;SDS011;11158;53.404;-1.510;2023-05-17T12:20:27;4.68;;;2.00;;
21987;SDS011;11158;53.404;-1.510;2023-05-17T12:23:12;6.63;;;2.17;;
21987;SDS011;11158;53.404;-1.510;2023-05-17T12:26:06;2.85;;;1.65;;
21987;SDS011;11158;53.404;-1.510;2023-05-17T12:28:56;6.07;;;2.25;;
21987;SDS011;11158;53.404;-1.510;2023-05-17T12:31:47;5.20;;;1.85;;
21987;SDS011;11158;53.404;-1.510;2023-05-17T12:34:33;4.65;;;1.90;;
21987;SDS011;11158;53.404;-1.510;2023-05-17T12:37:18;4.05;;;1.85;;
21987;SDS011;11158;53.404;-1.510;2023-05-17T12:40:02;4.35;;;2.15;;
21987;SDS011;11158;53.404;-1.510;2023-05-17T12:42:47;3.80;;;2.22;;
21987;SDS011;11158;53.404;-1.510;2023-05-17T12:45:32;5.00;;;1.90;;
21987;SDS011;11158;53.404;-1.510;2023-05-17T12:48:17;4.70;;;2.25;;
21987;SDS011;11158;53.404;-1.510;2023-05-17T12:51:08;4.53;;;1.90;;
21987;SDS011;11158;53.404;-1.510;2023-05-17T12:53:57;2.90;;;1.77;;
21987;SDS011;11158;53.404;-1.510;2023-05-17T12:56:44;4.18;;;2.00;;
21987;SDS011;11158;53.404;-1.510;2023-05-17T12:59:29;4.22;;;1.90;;
21987;SDS011;11158;53.404;-1.510;2023-05-17T13:02:14;4.40;;;2.35;;
21987;SDS011;11158;53.404;-1.510;2023-05-17T13:05:11;3.67;;;2.05;;
21987;SDS011;11158;53.404;-1.510;2023-05-17T13:07:56;4.90;;;2.08;;
21987;SDS011;11158;53.404;-1.510;2023-05-17T13:11:07;3.47;;;1.90;;
21987;SDS011;11158;53.404;-1.510;2023-05-17T13:16:37;4.43;;;2.15;;
21987;SDS011;11158;53.404;-1.510;2023-05-17T13:19:22;2.35;;;1.80;;
21987;SDS011;11158;53.404;-1.510;2023-05-17T13:22:06;5.50;;;2.05;;
21987;SDS011;11158;53.404;-1.510;2023-05-17T13:24:51;4.72;;;2.35;;
21987;SDS011;11158;53.404;-1.510;2023-05-17T13:27:35;4.22;;;2.05;;
21987;SDS011;11158;53.404;-1.510;2023-05-17T13:30:19;2.72;;;1.90;;
21987;SDS011;11158;53.404;-1.510;2023-05-17T13:33:03;3.47;;;2.20;;
21987;SDS011;11158;53.404;-1.510;2023-05-17T13:35:47;4.60;;;2.05;;
21987;SDS011;11158;53.404;-1.510;2023-05-17T13:38:31;3.33;;;2.05;;
21987;SDS011;11158;53.404;-1.510;2023-05-17T13:41:15;4.32;;;1.98;;
21987;SDS011;11158;53.404;-1.510;2023-05-17T13:44:00;4.13;;;1.67;;
21987;SDS011;11158;53.404;-1.510;2023-05-17T13:46:44;5.88;;;1.95;;
21987;SDS011;11158;53.404;-1.510;2023-05-17T13:49:28;5.07;;;2.00;;
21987;SDS011;11158;53.404;-1.510;2023-05-17T13:52:12;2.92;;;2.15;;
21987;SDS011;11158;53.404;-1.510;2023-05-17T13:54:56;5.43;;;2.08;;
21987;SDS011;11158;53.404;-1.510;2023-05-17T13:57:40;4.68;;;2.10;;
21987;SDS011;11158;53.404;-1.510;2023-05-17T14:00:24;5.22;;;2.40;;
21987;SDS011;11158;53.404;-1.510;2023-05-17T14:03:09;4.03;;;2.42;;
21987;SDS011;11158;53.404;-1.510;2023-05-17T14:05:55;4.18;;;1.98;;
21987;SDS011;11158;53.404;-1.510;2023-05-17T14:08:39;2.50;;;2.17;;
21987;SDS011;11158;53.404;-1.510;2023-05-17T14:11:24;6.13;;;1.77;;
21987;SDS011;11158;53.404;-1.510;2023-05-17T14:14:08;4.28;;;1.90;;
21987;SDS011;11158;53.404;-1.510;2023-05-17T14:16:53;3.53;;;1.77;;
21987;SDS011;11158;53.404;-1.510;2023-05-17T14:19:37;3.35;;;1.75;;
21987;SDS011;11158;53.404;-1.510;2023-05-17T14:22:21;2.72;;;1.75;;
21987;SDS011;11158;53.404;-1.510;2023-05-17T14:25:05;3.60;;;2.00;;
21987;SDS011;11158;53.404;-1.510;2023-05-17T14:27:50;2.83;;;1.90;;
21987;SDS011;11158;53.404;-1.510;2023-05-17T14:30:36;3.00;;;1.77;;
21987;SDS011;11158;53.404;-1.510;2023-05-17T14:33:20;5.47;;;2.10;;
21987;SDS011;11158;53.404;-1.510;2023-05-17T14:36:04;3.45;;;1.65;;
21987;SDS011;11158;53.404;-1.510;2023-05-17T14:38:49;3.72;;;2.00;;
21987;SDS011;11158;53.404;-1.510;2023-05-17T14:41:33;3.47;;;1.77;;
21987;SDS011;11158;53.404;-1.510;2023-05-17T14:44:17;2.92;;;1.85;;
21987;SDS011;11158;53.404;-1.510;2023-05-17T14:47:08;5.40;;;1.65;;
21987;SDS011;11158;53.404;-1.510;2023-05-17T14:49:53;5.47;;;2.10;;
21987;SDS011;11158;53.404;-1.510;2023-05-17T14:52:37;5.60;;;2.13;;
21987;SDS011;11158;53.404;-1.510;2023-05-17T14:55:21;3.05;;;1.55;;
21987;SDS011;11158;53.404;-1.510;2023-05-17T14:58:05;4.28;;;2.03;;
21987;SDS011;11158;53.404;-1.510;2023-05-17T15:00:49;6.10;;;1.90;;
21987;SDS011;11158;53.404;-1.510;2023-05-17T15:03:36;3.00;;;1.80;;
21987;SDS011;11158;53.404;-1.510;2023-05-17T15:06:20;3.47;;;1.70;;
21987;SDS011;11158;53.404;-1.510;2023-05-17T15:09:07;3.65;;;1.70;;
21987;SDS011;11158;53.404;-1.510;2023-05-17T15:11:55;4.05;;;1.98;;
21987;SDS011;11158;53.404;-1.510;2023-05-17T15:14:40;5.13;;;2.05;;
21987;SDS011;11158;53.404;-1.510;2023-05-17T15:17:24;2.90;;;1.67;;
21987;SDS011;11158;53.404;-1.510;2023-05-17T15:20:08;6.75;;;2.28;;
21987;SDS011;11158;53.404;-1.510;2023-05-17T15:22:53;4.85;;;1.70;;
21987;SDS011;11158;53.404;-1.510;2023-05-17T15:25:37;6.20;;;2.42;;
21987;SDS011;11158;53.404;-1.510;2023-05-17T15:28:21;6.40;;;1.95;;
21987;SDS011;11158;53.404;-1.510;2023-05-17T15:31:06;3.08;;;1.77;;
21987;SDS011;11158;53.404;-1.510;2023-05-17T15:33:54;3.50;;;2.20;;
21987;SDS011;11158;53.404;-1.510;2023-05-17T15:36:38;5.60;;;1.90;;
21987;SDS011;11158;53.404;-1.510;2023-05-17T15:39:23;4.07;;;1.75;;
21987;SDS011;11158;53.404;-1.510;2023-05-17T15:42:07;5.57;;;2.30;;
21987;SDS011;11158;53.404;-1.510;2023-05-17T15:44:51;6.78;;;2.25;;
21987;SDS011;11158;53.404;-1.510;2023-05-17T15:47:35;5.43;;;2.03;;
21987;SDS011;11158;53.404;-1.510;2023-05-17T15:50:19;6.00;;;2.20;;
21987;SDS011;11158;53.404;-1.510;2023-05-17T15:53:03;5.07;;;2.10;;
21987;SDS011;11158;53.404;-1.510;2023-05-17T15:55:47;6.25;;;1.77;;
21987;SDS011;11158;53.404;-1.510;2023-05-17T15:58:34;19.23;;;3.40;;
21987;SDS011;11158;53.404;-1.510;2023-05-17T16:01:19;4.93;;;2.30;;
21987;SDS011;11158;53.404;-1.510;2023-05-17T16:04:03;3.10;;;1.95;;
21987;SDS011;11158;53.404;-1.510;2023-05-17T16:06:47;3.47;;;1.92;;
21987;SDS011;11158;53.404;-1.510;2023-05-17T16:09:31;4.63;;;1.90;;
21987;SDS011;11158;53.404;-1.510;2023-05-17T16:12:15;3.42;;;2.00;;
21987;SDS011;11158;53.404;-1.510;2023-05-17T16:14:59;5.20;;;1.98;;
21987;SDS011;11158;53.404;-1.510;2023-05-17T16:17:43;5.47;;;2.10;;
21987;SDS011;11158;53.404;-1.510;2023-05-17T16:20:28;5.00;;;2.17;;
21987;SDS011;11158;53.404;-1.510;2023-05-17T16:23:12;8.57;;;1.83;;
21987;SDS011;11158;53.404;-1.510;2023-05-17T16:25:56;3.60;;;1.75;;
21987;SDS011;11158;53.404;-1.510;2023-05-17T16:28:40;5.82;;;1.80;;
21987;SDS011;11158;53.404;-1.510;2023-05-17T16:31:24;7.20;;;2.20;;
21987;SDS011;11158;53.404;-1.510;2023-05-17T16:34:09;4.45;;;1.45;;
21987;SDS011;11158;53.404;-1.510;2023-05-17T16:36:53;4.78;;;1.77;;
21987;SDS011;11158;53.404;-1.510;2023-05-17T16:39:37;4.88;;;1.98;;
21987;SDS011;11158;53.404;-1.510;2023-05-17T16:42:22;3.17;;;1.90;;
21987;SDS011;11158;53.404;-1.510;2023-05-17T16:45:06;5.45;;;2.22;;
21987;SDS011;11158;53.404;-1.510;2023-05-17T16:47:51;4.30;;;1.88;;